Time;durP1;ratioP1;P1;durP2;ratioP2;P2;SDS_P1;SDS_P2;PMS_P1;PMS_P2;Temp;Humidity;BMP_temperature;BMP_pressure;BME280_temperature;BME280_humidity;BME280_pressure;Samples;Min_cycle;Max_cycle;Signal;HPM_P1;HPM_P2
2022/03/31 00:01:39;;;;;;;9.93;9.40;;;;;;;12.67;49.62;91809.38;5048474;28;20233;-72
2022/03/31 00:04:04;;;;;;;8.87;8.47;;;;;;;12.62;50.27;91821.88;5047575;28;20240;-74
2022/03/31 00:06:30;;;;;;;9.20;8.70;;;;;;;12.51;50.50;91836.34;5048991;28;20208;-72
2022/03/31 00:08:55;;;;;;;9.40;8.70;;;;;;;12.63;49.63;91823.41;5048030;28;20266;-72
2022/03/31 00:11:21;;;;;;;10.17;9.50;;;;;;;12.34;50.96;91804.94;5049998;28;20220;-73
2022/03/31 00:13:47;;;;;;;9.93;9.13;;;;;;;12.42;51.00;91812.78;5049165;28;20796;-72
2022/03/31 00:16:12;;;;;;;9.27;8.77;;;;;;;11.93;53.25;91812.44;5049999;28;20201;-71
2022/03/31 00:18:38;;;;;;;9.40;8.83;;;;;;;12.06;52.71;91822.00;5049351;28;20229;-73
2022/03/31 00:21:03;;;;;;;8.17;7.77;;;;;;;12.17;52.29;91808.31;5047334;28;20213;-72
2022/03/31 00:23:29;;;;;;;8.70;8.30;;;;;;;12.42;50.98;91806.81;5050251;28;20643;-72
2022/03/31 00:25:56;;;;;;;8.70;8.30;;;;;;;12.23;52.45;91808.94;5049077;28;20183;-72
2022/03/31 00:28:22;;;;;;;9.63;9.13;;;;;;;12.26;51.54;91805.72;5050157;28;20236;-72
2022/03/31 00:30:48;;;;;;;10.53;9.93;;;;;;;12.30;51.42;91798.78;5050119;28;20422;-72
2022/03/31 00:33:14;;;;;;;8.30;8.00;;;;;;;12.27;51.73;91796.78;5049928;28;20215;-72
2022/03/31 00:35:40;;;;;;;9.07;8.57;;;;;;;12.21;51.24;91790.94;5050338;28;20193;-73
2022/03/31 00:38:05;;;;;;;8.37;7.97;;;;;;;12.13;51.45;91783.06;5048525;28;20230;-72
2022/03/31 00:40:31;;;;;;;7.43;7.13;;;;;;;12.37;50.88;91767.69;5048427;28;20278;-71
2022/03/31 00:42:59;;;;;;;9.10;8.43;;;;;;;12.26;51.63;91805.72;5049592;28;20211;-72
2022/03/31 00:45:34;;;;;;;8.83;8.27;;;;;;;12.54;49.63;91778.16;5050016;28;20222;-73
2022/03/31 00:48:01;;;;;;;9.87;9.03;;;;;;;12.55;50.06;91785.69;5048420;28;20192;-74
2022/03/31 00:50:27;;;;;;;8.10;7.70;;;;;;;12.63;49.76;91771.03;5048354;28;20235;-75
2022/03/31 00:52:53;;;;;;;10.13;8.83;;;;;;;12.32;50.87;91796.63;5048567;28;20343;-72
2022/03/31 00:55:19;;;;;;;8.43;7.93;;;;;;;12.60;50.98;91779.53;5048940;28;20250;-72
2022/03/31 00:57:46;;;;;;;9.77;9.17;;;;;;;12.72;50.95;91764.72;5049866;28;20213;-72
2022/03/31 01:00:17;;;;;;;10.03;9.40;;;;;;;12.96;50.84;91766.81;5047263;28;20589;-72
2022/03/31 01:02:45;;;;;;;10.07;9.57;;;;;;;13.04;50.48;91745.09;5049537;28;20221;-72
2022/03/31 01:05:14;;;;;;;8.60;8.10;;;;;;;13.25;49.90;91751.16;5049364;28;20229;-72
2022/03/31 01:07:40;;;;;;;8.47;7.93;;;;;;;13.40;49.13;91768.22;5048313;28;20189;-73
2022/03/31 01:10:07;;;;;;;9.73;9.13;;;;;;;13.27;50.19;91766.56;5048817;28;20230;-72
2022/03/31 01:12:34;;;;;;;8.90;8.40;;;;;;;13.18;51.06;91745.66;5048643;28;20262;-72
2022/03/31 01:15:16;;;;;;;7.33;7.03;;;;;;;13.46;49.27;91738.91;5047230;28;20234;-72
2022/03/31 01:17:44;;;;;;;8.53;8.13;;;;;;;13.50;48.95;91763.38;5047991;28;20285;-72
2022/03/31 01:20:14;;;;;;;8.90;8.27;;;;;;;13.64;48.30;91732.47;5048803;28;20277;-72
2022/03/31 01:22:42;;;;;;;8.10;7.70;;;;;;;13.43;48.28;91734.25;5047739;28;20210;-72
2022/03/31 01:25:09;;;;;;;8.57;8.00;;;;;;;13.11;50.18;91766.31;5046766;28;20221;-73
2022/03/31 01:27:38;;;;;;;10.33;9.17;;;;;;;13.13;50.09;91763.38;5047023;28;20186;-73
2022/03/31 01:30:15;;;;;;;8.13;7.77;;;;;;;13.33;49.94;91749.59;5047045;28;20266;-72
2022/03/31 01:32:43;;;;;;;8.57;8.20;;;;;;;13.31;49.27;91749.91;5046775;28;20193;-72
2022/03/31 01:35:09;;;;;;;8.13;7.40;;;;;;;13.19;50.86;91746.41;5048994;28;20218;-72
2022/03/31 01:37:34;;;;;;;8.50;7.70;;;;;;;13.01;50.79;91737.09;5039307;28;20205;-70
2022/03/31 01:40:00;;;;;;;8.20;7.70;;;;;;;13.06;51.16;91729.81;5047545;28;20245;-72
2022/03/31 01:42:27;;;;;;;8.57;8.17;;;;;;;12.65;51.53;91732.22;5048934;28;20202;-73
2022/03/31 01:44:52;;;;;;;8.20;7.87;;;;;;;12.79;51.75;91733.56;5048245;28;20252;-72
2022/03/31 01:47:18;;;;;;;7.83;7.20;;;;;;;12.84;51.69;91719.56;5049229;28;20198;-72
2022/03/31 01:49:44;;;;;;;8.97;8.37;;;;;;;13.05;51.18;91746.63;5049484;28;20236;-72
2022/03/31 01:52:10;;;;;;;8.20;7.70;;;;;;;13.19;50.39;91735.91;5052487;28;20194;-72
2022/03/31 01:54:35;;;;;;;8.73;8.27;;;;;;;12.79;51.92;91748.53;5051037;28;20823;-72
2022/03/31 01:57:01;;;;;;;9.47;8.83;;;;;;;12.86;52.29;91723.38;5052620;28;20221;-72
2022/03/31 01:59:40;;;;;;;9.23;8.53;;;;;;;12.50;53.55;91756.25;5052018;28;20222;-72
2022/03/31 02:02:07;;;;;;;9.03;8.13;;;;;;;12.46;53.44;91737.03;5052237;28;20243;-72
2022/03/31 02:04:32;;;;;;;8.93;8.43;;;;;;;12.71;53.24;91720.50;5052863;28;20242;-74
2022/03/31 02:06:57;;;;;;;9.40;8.47;;;;;;;12.38;54.02;91737.81;5053175;28;20205;-74
2022/03/31 02:09:23;;;;;;;8.70;8.23;;;;;;;12.24;54.27;91729.34;5051410;28;20240;-73
2022/03/31 02:11:48;;;;;;;8.97;8.47;;;;;;;12.57;53.34;91731.16;5052224;28;20184;-74
2022/03/31 02:14:14;;;;;;;8.87;8.10;;;;;;;12.42;53.04;91692.38;5051176;28;20222;-74
2022/03/31 02:16:40;;;;;;;8.37;7.90;;;;;;;12.57;52.70;91714.69;5052604;28;20201;-74
2022/03/31 02:19:05;;;;;;;8.43;8.07;;;;;;;12.48;54.06;91719.94;5051111;28;20226;-75
2022/03/31 02:21:31;;;;;;;8.90;8.43;;;;;;;12.19;54.80;91692.88;5052733;28;20224;-74
2022/03/31 02:23:56;;;;;;;10.37;9.47;;;;;;;12.44;54.46;91716.41;5051867;28;20323;-72
2022/03/31 02:26:21;;;;;;;8.20;7.90;;;;;;;12.28;55.48;91707.50;5050512;28;20189;-72
2022/03/31 02:28:47;;;;;;;9.43;8.83;;;;;;;12.31;55.34;91708.75;5051384;28;20230;-72
2022/03/31 02:31:13;;;;;;;9.63;9.00;;;;;;;12.33;55.02;91699.47;5052784;28;20190;-72
2022/03/31 02:33:38;;;;;;;8.47;8.07;;;;;;;12.27;55.80;91705.97;5049938;28;20223;-71
2022/03/31 02:36:05;;;;;;;8.60;8.20;;;;;;;12.22;56.71;91708.72;5052362;28;20186;-72
2022/03/31 02:38:31;;;;;;;9.10;8.60;;;;;;;12.19;56.77;91708.56;5050148;28;20241;-72
2022/03/31 02:40:56;;;;;;;9.23;8.70;;;;;;;12.41;56.13;91713.63;5049891;28;20220;-72
2022/03/31 02:43:22;;;;;;;8.97;8.27;;;;;;;12.26;56.56;91708.88;5051518;28;20194;-72
2022/03/31 02:45:47;;;;;;;9.20;8.50;;;;;;;12.29;56.73;91682.09;5050197;28;20214;-72
2022/03/31 02:48:13;;;;;;;9.80;8.90;;;;;;;12.33;57.03;91688.25;5051609;28;20274;-72
2022/03/31 02:50:38;;;;;;;9.53;8.97;;;;;;;12.48;56.42;91674.69;5051646;28;20198;-72
2022/03/31 02:55:48;;;;;;;8.43;8.07;;;;;;;12.34;57.54;91681.94;5050863;28;20232;-71
2022/03/31 02:58:13;;;;;;;9.20;8.63;;;;;;;12.18;58.34;91704.44;5052026;28;20929;-72
2022/03/31 03:00:38;;;;;;;10.23;9.23;;;;;;;12.18;58.12;91704.44;5050431;28;20224;-72
2022/03/31 03:03:04;;;;;;;8.67;8.27;;;;;;;12.67;51.84;91685.53;5050622;28;21225;-72
2022/03/31 03:05:31;;;;;;;8.37;8.07;;;;;;;12.53;52.49;91687.56;5051795;28;20233;-72
2022/03/31 03:07:57;;;;;;;10.10;9.43;;;;;;;12.13;55.07;91697.50;5051623;28;21197;-72
2022/03/31 03:10:22;;;;;;;8.23;7.80;;;;;;;12.03;55.62;91699.69;5050470;28;20261;-71
2022/03/31 03:12:51;;;;;;;10.87;9.53;;;;;;;11.92;55.52;91678.28;5051597;28;20180;-72
2022/03/31 03:15:17;;;;;;;8.10;7.57;;;;;;;12.21;55.65;91701.97;5050530;28;20307;-71
2022/03/31 03:17:45;;;;;;;8.67;8.23;;;;;;;12.21;55.74;91694.13;5051069;28;20249;-72
2022/03/31 03:20:13;;;;;;;9.23;8.73;;;;;;;12.06;56.11;91680.75;5050758;28;20217;-72
2022/03/31 03:22:43;;;;;;;9.07;8.47;;;;;;;12.15;56.48;91684.91;5051334;28;20311;-72
2022/03/31 03:25:10;;;;;;;8.87;8.37;;;;;;;12.07;58.07;91690.13;5049809;28;20951;-70
2022/03/31 03:27:36;;;;;;;9.03;8.50;;;;;;;12.15;57.42;91676.28;5051238;28;20196;-70
2022/03/31 03:30:02;;;;;;;7.80;7.50;;;;;;;12.16;58.08;91677.81;5050288;28;20341;-70
2022/03/31 03:32:27;;;;;;;8.53;8.13;;;;;;;11.87;59.37;91691.53;5049826;28;20190;-70
2022/03/31 03:34:53;;;;;;;9.70;8.93;;;;;;;11.64;59.33;91679.69;5050172;28;20237;-70
2022/03/31 03:37:18;;;;;;;8.63;8.23;;;;;;;11.62;57.93;91673.97;5049973;28;20187;-70
2022/03/31 03:39:44;;;;;;;9.20;8.73;;;;;;;12.00;56.07;91666.28;5048763;28;20256;-70
2022/03/31 03:42:10;;;;;;;10.10;9.50;;;;;;;11.68;58.14;91687.66;5047819;28;20210;-70
2022/03/31 03:44:35;;;;;;;9.33;8.77;;;;;;;11.77;57.92;91664.91;5047075;28;20226;-75
2022/03/31 03:47:01;;;;;;;8.37;8.07;;;;;;;11.60;57.78;91663.03;5049877;28;20190;-73
2022/03/31 03:49:27;;;;;;;9.27;8.80;;;;;;;11.63;57.08;91653.81;5048852;28;20264;-73
2022/03/31 03:51:52;;;;;;;8.93;8.50;;;;;;;11.79;56.05;91641.84;5041759;28;20259;-73
2022/03/31 03:54:18;;;;;;;9.60;9.20;;;;;;;11.61;55.18;91650.75;5049630;28;20238;-72
2022/03/31 03:56:43;;;;;;;10.10;9.37;;;;;;;11.71;55.55;91672.16;5048732;28;20263;-73
2022/03/31 03:59:09;;;;;;;10.03;9.53;;;;;;;11.43;56.41;91655.19;5048923;28;20243;-72
2022/03/31 04:01:34;;;;;;;9.20;8.80;;;;;;;11.66;56.00;91653.25;5050055;28;20209;-74
2022/03/31 04:04:00;;;;;;;10.10;9.40;;;;;;;11.81;54.58;91671.06;5050855;28;20237;-73
2022/03/31 04:06:25;;;;;;;8.77;8.37;;;;;;;11.86;53.39;91657.84;5047956;28;20205;-75
2022/03/31 04:08:51;;;;;;;9.03;8.60;;;;;;;11.44;54.95;91635.81;5049877;28;20267;-77
2022/03/31 04:11:16;;;;;;;8.90;8.50;;;;;;;11.48;54.48;91689.00;5048433;28;20229;-76
2022/03/31 04:13:42;;;;;;;7.90;7.57;;;;;;;11.21;54.71;91648.25;5050209;28;20240;-79
2022/03/31 04:16:08;;;;;;;9.37;8.70;;;;;;;12.03;52.52;91671.66;5049136;28;20191;-80
2022/03/31 04:18:33;;;;;;;9.10;8.33;;;;;;;11.58;54.78;91685.34;5049016;28;20264;-75
2022/03/31 04:21:02;;;;;;;10.43;9.80;;;;;;;11.49;53.83;91708.09;5048622;28;20197;-79
2022/03/31 04:23:29;;;;;;;8.17;7.67;;;;;;;11.38;54.41;91671.78;5050081;28;20238;-81
2022/03/31 04:25:54;;;;;;;8.70;8.33;;;;;;;11.59;54.09;91679.03;5050295;28;20238;-75
2022/03/31 04:28:20;;;;;;;9.93;9.27;;;;;;;11.77;53.79;91704.91;5048905;28;20202;-78
2022/03/31 04:30:46;;;;;;;9.13;8.57;;;;;;;11.23;56.28;91698.34;5047004;28;20174;-74
2022/03/31 04:33:11;;;;;;;11.07;10.37;;;;;;;11.33;58.85;91716.34;5049006;28;20274;-76
2022/03/31 04:35:37;;;;;;;9.67;8.97;;;;;;;11.63;59.96;91690.44;5049412;28;20183;-74
2022/03/31 04:38:04;;;;;;;9.33;8.93;;;;;;;10.72;60.99;91672.06;5047615;28;20187;-73
2022/03/31 04:40:29;;;;;;;9.93;9.00;;;;;;;11.00;63.65;91696.13;5046045;28;20230;-76
2022/03/31 04:42:55;;;;;;;8.90;8.20;;;;;;;10.58;65.52;91675.84;5048920;28;20185;-74
2022/03/31 04:45:20;;;;;;;10.90;10.20;;;;;;;10.83;64.95;91686.38;5048462;28;20206;-74
2022/03/31 04:47:46;;;;;;;9.23;8.77;;;;;;;10.62;67.48;91677.56;5049319;28;21720;-74
2022/03/31 04:50:13;;;;;;;8.43;8.10;;;;;;;10.40;68.32;91680.22;5048478;28;20209;-74
2022/03/31 04:52:39;;;;;;;9.30;8.90;;;;;;;10.44;67.80;91686.38;5047461;28;20174;-74
2022/03/31 04:55:05;;;;;;;9.60;8.97;;;;;;;10.78;62.80;91688.38;5046860;28;20242;-73
2022/03/31 04:57:31;;;;;;;9.43;9.03;;;;;;;10.93;65.77;91707.00;5037801;28;20202;-74
2022/03/31 04:59:56;;;;;;;8.63;8.23;;;;;;;11.04;67.65;91682.16;5043587;28;20225;-74
2022/03/31 05:02:22;;;;;;;10.93;9.93;;;;;;;11.17;68.72;91691.72;5043037;28;20206;-74
2022/03/31 05:04:47;;;;;;;9.00;8.50;;;;;;;11.22;66.87;91681.13;5045333;28;20213;-73
2022/03/31 05:07:13;;;;;;;9.20;8.43;;;;;;;11.08;65.30;91636.06;5048157;28;20194;-74
2022/03/31 05:09:39;;;;;;;9.20;8.23;;;;;;;11.55;65.55;91662.44;5045713;28;20221;-74
2022/03/31 05:12:08;;;;;;;9.20;8.70;;;;;;;11.76;63.96;91674.63;5048530;28;20191;-74
2022/03/31 05:14:33;;;;;;;8.70;8.20;;;;;;;11.76;66.84;91673.84;5047469;28;20289;-74
2022/03/31 05:16:59;;;;;;;8.93;8.43;;;;;;;11.89;64.18;91676.28;5049374;28;20209;-74
2022/03/31 05:19:25;;;;;;;10.00;9.07;;;;;;;12.01;63.68;91699.22;5042715;28;20230;-74
2022/03/31 05:21:50;;;;;;;12.93;8.50;;;;;;;12.32;60.54;91710.25;5041811;28;20240;-79
2022/03/31 05:24:16;;;;;;;11.93;10.80;;;;;;;12.30;63.16;91725.50;5045819;28;20250;-81
2022/03/31 05:26:41;;;;;;;8.93;8.40;;;;;;;12.27;63.05;91694.72;5047347;28;20189;-87
2022/03/31 05:29:07;;;;;;;9.03;8.53;;;;;;;12.67;61.68;91706.47;5044377;28;20237;-85
2022/03/31 05:31:33;;;;;;;12.37;9.97;;;;;;;12.67;64.24;91709.88;5047748;28;20324;-84
2022/03/31 05:33:58;;;;;;;8.90;8.50;;;;;;;12.63;64.93;91710.81;5046245;28;20221;-83
2022/03/31 05:36:24;;;;;;;8.80;8.33;;;;;;;12.38;64.65;91720.25;5047292;28;20253;-83
2022/03/31 05:38:49;;;;;;;9.00;8.20;;;;;;;12.39;67.40;91702.72;5043984;28;20218;-86
2022/03/31 05:41:15;;;;;;;9.47;8.60;;;;;;;12.16;69.00;91719.66;5045662;28;20233;-82
2022/03/31 05:43:40;;;;;;;9.03;8.43;;;;;;;12.40;67.62;91714.72;5046127;28;20261;-82
2022/03/31 05:46:06;;;;;;;9.27;8.87;;;;;;;12.32;69.68;91739.06;5047351;28;20191;-80
2022/03/31 05:48:31;;;;;;;8.63;8.17;;;;;;;12.21;71.58;91709.81;5041991;28;20232;-80
2022/03/31 05:50:57;;;;;;;10.43;9.50;;;;;;;12.19;69.45;91716.44;5047074;28;21158;-80
2022/03/31 05:53:22;;;;;;;7.90;7.40;;;;;;;12.25;68.53;91696.91;5047246;28;20222;-80
2022/03/31 05:55:48;;;;;;;8.90;8.40;;;;;;;12.08;69.76;91694.28;5046248;28;20182;-81
2022/03/31 05:58:13;;;;;;;8.37;8.00;;;;;;;12.47;67.92;91694.84;5047107;28;20189;-75
2022/03/31 06:00:39;;;;;;;11.13;10.10;;;;;;;12.32;67.75;91702.41;5045673;28;20210;-82
2022/03/31 06:03:06;;;;;;;10.03;9.33;;;;;;;12.38;64.84;91680.22;5047275;28;20210;-81
2022/03/31 06:05:32;;;;;;;9.57;8.97;;;;;;;12.20;69.60;91689.94;5046749;28;20232;-83
2022/03/31 06:07:58;;;;;;;8.23;7.93;;;;;;;12.49;65.73;91684.06;5047004;28;20246;-82
2022/03/31 06:10:24;;;;;;;9.40;8.90;;;;;;;12.50;69.51;91703.91;5045763;28;20266;-80
2022/03/31 06:12:50;;;;;;;9.60;9.13;;;;;;;12.54;69.35;91699.59;5046507;28;20182;-81
2022/03/31 06:15:16;;;;;;;10.43;9.83;;;;;;;12.73;66.28;91684.31;5046135;28;20221;-76
2022/03/31 06:17:44;;;;;;;8.63;8.20;;;;;;;12.95;65.32;91684.03;5047064;28;20233;-79
2022/03/31 06:20:11;;;;;;;9.33;8.83;;;;;;;13.05;66.89;91686.34;5047252;28;20264;-81
2022/03/31 06:22:37;;;;;;;9.57;8.97;;;;;;;13.02;66.70;91709.78;5048263;28;20178;-80
2022/03/31 06:25:03;;;;;;;8.80;8.40;;;;;;;13.51;61.32;91686.25;5044826;28;20245;-79
2022/03/31 06:27:29;;;;;;;10.70;8.70;;;;;;;13.22;65.71;91702.00;5042352;28;20194;-80
2022/03/31 06:29:55;;;;;;;9.47;8.83;;;;;;;13.16;67.23;91710.34;5042271;28;20233;-81
2022/03/31 06:32:20;;;;;;;10.37;9.77;;;;;;;13.40;66.75;91713.91;5045116;28;20194;-80
2022/03/31 06:34:45;;;;;;;8.27;7.87;;;;;;;13.27;66.83;91712.31;5042793;28;20246;-82
2022/03/31 06:37:11;;;;;;;8.33;8.03;;;;;;;13.76;63.17;91723.91;5049548;28;20191;-80
2022/03/31 06:39:37;;;;;;;9.37;8.77;;;;;;;14.17;62.04;91729.16;5050973;28;20233;-81
2022/03/31 06:42:04;;;;;;;9.43;8.73;;;;;;;13.81;60.15;91715.84;5052196;28;20212;-80
2022/03/31 06:44:30;;;;;;;9.00;8.37;;;;;;;13.71;62.59;91711.72;5049991;28;20218;-80
2022/03/31 06:46:55;;;;;;;8.10;7.63;;;;;;;13.74;60.97;91718.97;5049424;28;20186;-80
2022/03/31 06:49:21;;;;;;;7.90;7.37;;;;;;;13.98;61.38;91695.50;5049286;28;20237;-80
2022/03/31 06:51:47;;;;;;;8.43;8.03;;;;;;;14.16;60.80;91667.25;5043567;28;20170;-79
2022/03/31 06:54:12;;;;;;;8.90;8.30;;;;;;;13.94;59.93;91673.63;5047113;28;20312;-80
2022/03/31 06:56:38;;;;;;;9.23;8.63;;;;;;;13.76;59.14;91651.22;5050183;28;20225;-83
2022/03/31 06:59:04;;;;;;;8.33;7.90;;;;;;;13.97;58.98;91686.09;5046179;28;20763;-84
2022/03/31 07:01:30;;;;;;;8.90;8.10;;;;;;;14.06;58.26;91671.03;5049669;28;20224;-84
2022/03/31 07:03:55;;;;;;;9.33;8.93;;;;;;;14.09;59.27;91670.41;5049279;28;20226;-81
2022/03/31 07:06:22;;;;;;;8.40;7.80;;;;;;;14.00;58.69;91671.56;5049375;28;20210;-81
2022/03/31 07:08:48;;;;;;;7.80;7.40;;;;;;;14.15;58.85;91671.72;5048402;28;20872;-78
2022/03/31 07:11:14;;;;;;;9.13;8.73;;;;;;;14.12;58.67;91667.13;5050479;28;20190;-82
2022/03/31 07:13:40;;;;;;;8.63;8.10;;;;;;;14.08;58.21;91658.38;5051362;28;20291;-78
2022/03/31 07:16:06;;;;;;;8.73;7.90;;;;;;;14.23;57.39;91665.63;5051114;28;20221;-79
2022/03/31 07:18:32;;;;;;;15.03;8.77;;;;;;;14.18;57.81;91644.06;5050167;28;20237;-80
2022/03/31 07:20:57;;;;;;;9.73;9.13;;;;;;;13.98;57.78;91647.47;5051083;28;20309;-80
2022/03/31 07:23:25;;;;;;;8.37;7.43;;;;;;;14.12;57.53;91635.63;5049062;28;20213;-82
2022/03/31 07:25:52;;;;;;;10.20;9.63;;;;;;;14.37;56.84;91618.88;5049839;28;20166;-80
2022/03/31 07:28:17;;;;;;;7.87;7.57;;;;;;;14.24;56.62;91593.69;5050746;28;20181;-80
2022/03/31 07:30:43;;;;;;;8.67;8.17;;;;;;;14.52;56.28;91603.59;5049601;28;20193;-82
2022/03/31 07:33:09;;;;;;;9.03;8.33;;;;;;;14.51;55.85;91615.19;5049683;28;20190;-78
2022/03/31 07:35:37;;;;;;;8.77;8.27;;;;;;;14.67;56.15;91608.19;5050653;28;20189;-80
2022/03/31 07:38:04;;;;;;;7.83;7.33;;;;;;;14.80;55.52;91628.91;5050087;28;20245;-80
2022/03/31 07:40:30;;;;;;;8.10;7.63;;;;;;;14.70;55.86;91626.72;5047518;28;20233;-78
2022/03/31 07:42:57;;;;;;;9.27;8.33;;;;;;;14.74;55.02;91621.56;5051024;28;20182;-81
2022/03/31 07:45:23;;;;;;;20.40;9.67;;;;;;;14.82;54.58;91633.84;5048962;28;20206;-82
2022/03/31 07:47:49;;;;;;;9.17;8.47;;;;;;;14.59;55.61;91633.47;5047949;28;20222;-81
2022/03/31 07:50:18;;;;;;;8.53;8.13;;;;;;;14.74;55.88;91618.94;5050571;28;20248;-80
2022/03/31 07:52:44;;;;;;;8.43;8.03;;;;;;;14.46;55.28;91601.16;5049868;28;20193;-82
2022/03/31 07:55:13;;;;;;;9.10;7.30;;;;;;;14.86;55.39;91627.63;5050665;28;20225;-80
2022/03/31 07:57:39;;;;;;;8.73;8.23;;;;;;;14.89;54.78;91649.81;5047453;28;20179;-79
2022/03/31 08:00:06;;;;;;;8.57;7.93;;;;;;;14.86;54.36;91596.06;5048450;28;20230;-80
2022/03/31 08:02:32;;;;;;;8.73;7.90;;;;;;;15.27;54.03;91637.88;5047767;28;20281;-82
2022/03/31 08:04:57;;;;;;;8.60;7.30;;;;;;;15.71;53.22;91658.03;5050193;28;20218;-80
2022/03/31 08:07:23;;;;;;;6.27;6.03;;;;;;;15.85;52.08;91631.34;5050272;28;20201;-80
2022/03/31 08:09:48;;;;;;;8.33;7.93;;;;;;;16.19;51.13;91664.28;5048799;28;20238;-80
2022/03/31 08:12:14;;;;;;;8.20;7.70;;;;;;;16.43;50.92;91703.66;5046244;28;20221;-81
2022/03/31 08:14:39;;;;;;;8.17;7.53;;;;;;;16.10;50.76;91667.03;5048066;28;20233;-80
2022/03/31 08:17:05;;;;;;;8.37;7.73;;;;;;;16.09;51.79;91665.50;5049590;28;20202;-79
2022/03/31 08:19:32;;;;;;;8.03;7.63;;;;;;;16.02;51.23;91667.94;5049791;28;20233;-81
2022/03/31 08:22:01;;;;;;;8.50;8.00;;;;;;;15.98;51.31;91675.72;5048327;28;20289;-80
2022/03/31 08:24:27;;;;;;;8.37;7.70;;;;;;;16.34;49.78;91661.69;5046104;28;20246;-80
2022/03/31 08:26:53;;;;;;;7.43;7.13;;;;;;;16.43;50.06;91653.63;5049396;28;20178;-79
2022/03/31 08:29:19;;;;;;;7.83;7.33;;;;;;;16.47;50.71;91634.19;5050199;28;20301;-82
2022/03/31 08:31:45;;;;;;;9.30;8.57;;;;;;;16.28;49.94;91631.38;5046283;28;20190;-82
2022/03/31 08:34:11;;;;;;;7.33;6.93;;;;;;;16.62;49.44;91632.69;5050032;28;20218;-81
2022/03/31 08:36:37;;;;;;;8.40;7.83;;;;;;;16.68;49.50;91605.75;5050129;28;20205;-85
2022/03/31 08:39:04;;;;;;;7.77;7.37;;;;;;;16.41;49.00;91621.56;5049139;28;20226;-79
2022/03/31 08:41:30;;;;;;;8.73;8.13;;;;;;;17.08;48.16;91624.03;5049629;28;20212;-83
2022/03/31 08:43:56;;;;;;;8.23;7.57;;;;;;;17.03;48.22;91635.59;5049296;28;20230;-80
2022/03/31 08:46:23;;;;;;;8.53;7.87;;;;;;;17.03;48.07;91616.34;5049313;28;20182;-84
2022/03/31 08:48:49;;;;;;;7.87;7.47;;;;;;;17.16;47.84;91621.22;5049624;28;20222;-79
2022/03/31 08:51:15;;;;;;;9.27;8.07;;;;;;;16.83;47.98;91635.84;5049551;28;20187;-81
2022/03/31 08:53:41;;;;;;;8.37;7.90;;;;;;;17.00;47.66;91623.09;5049272;28;20321;-80
2022/03/31 08:56:09;;;;;;;8.37;7.87;;;;;;;17.46;47.98;91648.69;5049390;28;20186;-82
2022/03/31 08:58:35;;;;;;;8.60;7.90;;;;;;;17.47;46.30;91649.47;5048957;28;20236;-83
2022/03/31 09:01:00;;;;;;;7.97;7.57;;;;;;;17.14;46.91;91652.44;5047309;28;20217;-83
2022/03/31 09:03:34;;;;;;;8.63;7.57;;;;;;;17.22;47.74;91651.50;5049183;28;20200;-80
2022/03/31 09:05:59;;;;;;;9.33;8.57;;;;;;;16.92;47.29;91618.75;5049939;28;20216;-83
2022/03/31 09:08:24;;;;;;;7.10;6.60;;;;;;;17.12;48.23;91609.81;5047016;28;20195;-81
2022/03/31 09:10:53;;;;;;;8.57;7.80;;;;;;;17.00;48.98;91609.91;5045889;28;20236;-84
2022/03/31 09:13:22;;;;;;;8.70;8.07;;;;;;;17.25;47.76;91626.31;5048489;28;20186;-82
2022/03/31 09:15:57;;;;;;;8.87;8.37;;;;;;;16.79;49.55;91608.66;5048147;28;20189;-80
2022/03/31 09:18:25;;;;;;;8.93;8.33;;;;;;;16.93;47.70;91609.75;5047153;28;20224;-81
2022/03/31 09:20:54;;;;;;;7.27;6.77;;;;;;;16.86;48.57;91629.88;5047176;28;20202;-81
2022/03/31 09:23:21;;;;;;;7.90;7.33;;;;;;;16.83;48.51;91641.88;5047999;28;20190;-83
2022/03/31 09:25:47;;;;;;;8.40;7.80;;;;;;;16.52;49.19;91620.78;5049311;28;20185;-84
2022/03/31 09:28:21;;;;;;;8.37;7.27;;;;;;;16.83;48.96;91607.63;5048688;28;20198;-78
2022/03/31 09:30:50;;;;;;;8.50;7.80;;;;;;;16.94;48.26;91587.56;5048748;28;20201;-84
2022/03/31 09:33:27;;;;;;;7.47;7.03;;;;;;;16.58;49.30;91616.78;5047367;28;20194;-81
2022/03/31 09:36:05;;;;;;;8.87;8.37;;;;;;;16.38;49.27;91530.03;5049011;28;20213;-85
2022/03/31 09:38:37;;;;;;;7.17;6.70;;;;;;;16.63;49.40;91541.97;5048239;28;20238;-82
2022/03/31 09:41:39;;;;;;;8.03;7.43;;;;;;;16.74;49.26;91551.69;5048673;28;20248;-81
2022/03/31 09:44:07;;;;;;;7.77;7.10;;;;;;;16.73;49.36;91531.69;4967037;29;20256;-85
2022/03/31 09:46:35;;;;;;;8.10;7.80;;;;;;;16.83;49.77;91536.44;5032243;28;20261;-83
2022/03/31 09:49:12;;;;;;;8.70;8.10;;;;;;;17.05;48.87;91553.50;5048374;28;20228;-82
2022/03/31 09:51:38;;;;;;;8.60;8.00;;;;;;;16.94;49.38;91561.19;5049382;28;20193;-83
2022/03/31 09:54:04;;;;;;;7.90;7.50;;;;;;;16.90;48.46;91557.69;5046427;28;20224;-81
2022/03/31 09:56:38;;;;;;;8.10;7.60;;;;;;;17.13;47.91;91544.66;5049091;28;20255;-78
2022/03/31 09:59:04;;;;;;;8.27;7.70;;;;;;;17.45;47.57;91570.63;5047333;28;20240;-81
2022/03/31 10:01:31;;;;;;;7.57;7.07;;;;;;;17.27;47.96;91608.28;5048269;28;20217;-80
2022/03/31 10:03:57;;;;;;;7.50;7.00;;;;;;;17.13;48.56;91565.75;5045335;28;20226;-76
2022/03/31 10:06:24;;;;;;;8.80;8.27;;;;;;;17.30;47.74;91570.66;5046615;28;20242;-81
2022/03/31 10:08:51;;;;;;;9.23;8.53;;;;;;;17.69;46.41;91566.22;5045451;28;20229;-82
2022/03/31 10:11:23;;;;;;;8.53;8.03;;;;;;;17.64;46.58;91564.63;5050856;28;20182;-80
2022/03/31 10:14:13;;;;;;;8.97;8.27;;;;;;;18.30;45.96;91556.47;5051294;28;20236;-81
2022/03/31 10:16:47;;;;;;;8.20;7.73;;;;;;;17.89;45.97;91565.09;5051809;28;20216;-82
2022/03/31 10:19:26;;;;;;;8.43;7.83;;;;;;;17.57;46.97;91559.94;5050644;28;20233;-80
2022/03/31 10:22:10;;;;;;;8.07;7.60;;;;;;;18.16;46.00;91570.19;5048965;28;20207;-81
2022/03/31 10:24:42;;;;;;;9.83;8.73;;;;;;;18.39;45.62;91570.22;5050179;28;20225;-81
2022/03/31 10:27:25;;;;;;;8.90;8.20;;;;;;;18.00;46.25;91556.28;5050215;28;20172;-81
2022/03/31 10:29:51;;;;;;;8.20;7.50;;;;;;;17.87;46.36;91562.06;5050273;28;21176;-82
2022/03/31 10:32:24;;;;;;;8.20;7.67;;;;;;;18.19;45.80;91539.66;5052039;28;20186;-83
2022/03/31 10:34:53;;;;;;;9.47;8.60;;;;;;;18.63;44.08;91554.78;5048772;28;20211;-82
2022/03/31 10:37:37;;;;;;;8.40;7.67;;;;;;;18.55;44.28;91555.78;5050133;28;20186;-79
2022/03/31 10:40:09;;;;;;;8.53;7.93;;;;;;;19.11;43.75;91556.69;5050757;28;20319;-79
2022/03/31 10:42:35;;;;;;;11.03;8.67;;;;;;;18.27;45.54;91536.03;5050962;28;20225;-82
2022/03/31 10:45:12;;;;;;;8.67;8.07;;;;;;;18.29;45.20;91515.31;5050132;28;20234;-82
2022/03/31 10:47:40;;;;;;;8.47;7.90;;;;;;;17.91;45.13;91536.47;5049741;28;20198;-82
2022/03/31 10:50:08;;;;;;;9.23;8.33;;;;;;;17.86;45.87;91502.44;5049488;28;20223;-82
2022/03/31 10:52:34;;;;;;;9.20;8.50;;;;;;;17.96;46.07;91486.78;5049244;28;20195;-83
2022/03/31 10:55:10;;;;;;;9.17;8.63;;;;;;;18.33;45.90;91526.69;5049482;28;20226;-82
2022/03/31 10:57:44;;;;;;;8.53;8.00;;;;;;;18.42;44.30;91514.03;5050923;28;20182;-82
2022/03/31 11:00:14;;;;;;;8.70;7.87;;;;;;;18.62;44.85;91550.63;5049636;28;20312;-84
2022/03/31 11:02:43;;;;;;;9.17;8.30;;;;;;;18.69;45.43;91534.13;5050673;28;20692;-83
2022/03/31 11:05:08;;;;;;;8.10;7.70;;;;;;;19.46;42.43;91555.69;5049143;28;20234;-81
2022/03/31 11:07:34;;;;;;;7.30;6.73;;;;;;;18.60;44.01;91523.03;5049547;28;20180;-83
2022/03/31 11:10:11;;;;;;;9.10;8.30;;;;;;;19.13;44.30;91535.94;5048548;28;20227;-85
2022/03/31 11:12:37;;;;;;;7.90;6.90;;;;;;;18.14;45.02;91519.56;5050125;28;20202;-87
2022/03/31 11:15:08;;;;;;;6.27;5.87;;;;;;;18.95;44.60;91534.16;5050789;28;20221;-83
2022/03/31 11:17:35;;;;;;;6.57;6.00;;;;;;;19.34;44.15;91540.81;5050801;28;20242;-84
2022/03/31 11:20:03;;;;;;;7.43;6.63;;;;;;;19.14;44.13;91511.00;5047317;28;20234;-86
2022/03/31 11:22:30;;;;;;;7.33;6.83;;;;;;;18.77;44.27;91504.78;5049517;28;20287;-85
2022/03/31 11:25:08;;;;;;;8.43;7.67;;;;;;;18.98;43.52;91521.00;5050430;28;20242;-84
2022/03/31 11:27:38;;;;;;;8.77;8.07;;;;;;;18.44;45.34;91511.81;5051113;28;20221;-87
2022/03/31 11:30:07;;;;;;;8.30;7.80;;;;;;;18.05;45.17;91487.34;5050343;28;20215;-88
2022/03/31 11:32:34;;;;;;;7.50;7.00;;;;;;;18.04;46.00;91529.94;5050727;28;20237;-86
2022/03/31 11:35:00;;;;;;;8.30;7.90;;;;;;;18.05;47.84;91495.25;5050311;28;20222;-87